sensor_id;sensor_type;location;lat;lon;timestamp;temperature;humidity
52024;DHT22;38038;45.922;13.604;2022-11-20T00:00:27;8.50;99.90
52024;DHT22;38038;45.922;13.604;2022-11-20T00:02:52;8.50;99.90
52024;DHT22;38038;45.922;13.604;2022-11-20T00:05:18;8.50;99.90
52024;DHT22;38038;45.922;13.604;2022-11-20T00:07:44;8.40;99.90
52024;DHT22;38038;45.922;13.604;2022-11-20T00:10:10;8.50;99.90
52024;DHT22;38038;45.922;13.604;2022-11-20T00:12:36;8.50;99.90
52024;DHT22;38038;45.922;13.604;2022-11-20T00:15:02;8.50;99.90
52024;DHT22;38038;45.922;13.604;2022-11-20T00:17:28;8.50;99.90
52024;DHT22;38038;45.922;13.604;2022-11-20T00:19:53;8.50;99.90
52024;DHT22;38038;45.922;13.604;2022-11-20T00:22:19;8.50;99.90
52024;DHT22;38038;45.922;13.604;2022-11-20T00:24:45;8.60;99.90
52024;DHT22;38038;45.922;13.604;2022-11-20T00:27:11;8.50;99.90
52024;DHT22;38038;45.922;13.604;2022-11-20T00:29:36;8.60;99.90
52024;DHT22;38038;45.922;13.604;2022-11-20T00:32:02;8.50;99.90
52024;DHT22;38038;45.922;13.604;2022-11-20T00:34:28;8.50;99.90
52024;DHT22;38038;45.922;13.604;2022-11-20T00:36:53;8.50;99.90
52024;DHT22;38038;45.922;13.604;2022-11-20T00:39:19;8.50;99.90
52024;DHT22;38038;45.922;13.604;2022-11-20T00:41:45;8.50;99.90
52024;DHT22;38038;45.922;13.604;2022-11-20T00:44:10;8.50;99.90
52024;DHT22;38038;45.922;13.604;2022-11-20T00:46:36;8.50;99.90
52024;DHT22;38038;45.922;13.604;2022-11-20T00:49:02;8.50;99.90
52024;DHT22;38038;45.922;13.604;2022-11-20T00:51:28;8.50;99.90
52024;DHT22;38038;45.922;13.604;2022-11-20T00:53:57;8.50;99.90
52024;DHT22;38038;45.922;13.604;2022-11-20T00:56:25;8.40;99.90
52024;DHT22;38038;45.922;13.604;2022-11-20T00:58:51;8.40;99.90
52024;DHT22;38038;45.922;13.604;2022-11-20T01:01:19;8.40;99.90
52024;DHT22;38038;45.922;13.604;2022-11-20T01:03:50;8.40;99.90
52024;DHT22;38038;45.922;13.604;2022-11-20T01:08:53;8.50;99.90
52024;DHT22;38038;45.922;13.604;2022-11-20T01:11:24;8.60;99.90
52024;DHT22;38038;45.922;13.604;2022-11-20T01:13:51;8.50;99.90
52024;DHT22;38038;45.922;13.604;2022-11-20T01:18:50;8.50;99.90
52024;DHT22;38038;45.922;13.604;2022-11-20T01:21:19;8.50;99.90
52024;DHT22;38038;45.922;13.604;2022-11-20T01:23:46;8.50;99.90
52024;DHT22;38038;45.922;13.604;2022-11-20T01:26:16;8.50;99.90
52024;DHT22;38038;45.922;13.604;2022-11-20T01:28:43;8.50;99.90
52024;DHT22;38038;45.922;13.604;2022-11-20T01:33:51;8.40;99.90
52024;DHT22;38038;45.922;13.604;2022-11-20T01:36:19;8.40;99.90
52024;DHT22;38038;45.922;13.604;2022-11-20T01:38:46;8.50;99.90
52024;DHT22;38038;45.922;13.604;2022-11-20T01:41:13;8.40;99.90
52024;DHT22;38038;45.922;13.604;2022-11-20T01:44:00;8.40;99.90
52024;DHT22;38038;45.922;13.604;2022-11-20T01:46:26;8.30;99.90
52024;DHT22;38038;45.922;13.604;2022-11-20T01:49:17;8.40;99.90
52024;DHT22;38038;45.922;13.604;2022-11-20T01:51:50;8.30;99.90
52024;DHT22;38038;45.922;13.604;2022-11-20T01:54:22;8.40;99.90
52024;DHT22;38038;45.922;13.604;2022-11-20T01:56:51;8.40;99.90
52024;DHT22;38038;45.922;13.604;2022-11-20T01:59:19;8.40;99.90
52024;DHT22;38038;45.922;13.604;2022-11-20T02:01:47;8.30;99.90
52024;DHT22;38038;45.922;13.604;2022-11-20T02:04:13;8.30;99.90
52024;DHT22;38038;45.922;13.604;2022-11-20T02:06:47;8.20;99.90
52024;DHT22;38038;45.922;13.604;2022-11-20T02:09:14;8.30;99.90
52024;DHT22;38038;45.922;13.604;2022-11-20T02:11:39;8.30;99.90
52024;DHT22;38038;45.922;13.604;2022-11-20T02:14:05;8.30;99.90
52024;DHT22;38038;45.922;13.604;2022-11-20T02:16:35;8.30;99.90
52024;DHT22;38038;45.922;13.604;2022-11-20T02:19:04;8.20;99.90
52024;DHT22;38038;45.922;13.604;2022-11-20T02:21:42;8.20;99.90
52024;DHT22;38038;45.922;13.604;2022-11-20T02:24:12;8.20;99.90
52024;DHT22;38038;45.922;13.604;2022-11-20T02:31:58;8.30;99.90
52024;DHT22;38038;45.922;13.604;2022-11-20T02:34:24;8.20;99.90
52024;DHT22;38038;45.922;13.604;2022-11-20T02:36:51;8.30;99.90
52024;DHT22;38038;45.922;13.604;2022-11-20T02:39:17;8.30;99.90
52024;DHT22;38038;45.922;13.604;2022-11-20T02:41:44;8.30;99.90
52024;DHT22;38038;45.922;13.604;2022-11-20T02:44:10;8.40;99.90
52024;DHT22;38038;45.922;13.604;2022-11-20T02:46:36;8.30;99.90
52024;DHT22;38038;45.922;13.604;2022-11-20T02:49:05;8.40;99.90
52024;DHT22;38038;45.922;13.604;2022-11-20T02:51:31;8.40;99.90
52024;DHT22;38038;45.922;13.604;2022-11-20T02:53:57;8.30;99.90
52024;DHT22;38038;45.922;13.604;2022-11-20T02:56:24;8.30;99.90
52024;DHT22;38038;45.922;13.604;2022-11-20T02:58:49;8.20;99.90
52024;DHT22;38038;45.922;13.604;2022-11-20T03:01:15;8.30;99.90
52024;DHT22;38038;45.922;13.604;2022-11-20T03:03:41;8.20;99.90
52024;DHT22;38038;45.922;13.604;2022-11-20T03:06:07;8.20;99.90
52024;DHT22;38038;45.922;13.604;2022-11-20T03:08:33;8.20;99.90
52024;DHT22;38038;45.922;13.604;2022-11-20T03:11:04;8.30;99.90
52024;DHT22;38038;45.922;13.604;2022-11-20T03:13:30;8.30;99.90
52024;DHT22;38038;45.922;13.604;2022-11-20T03:15:55;8.30;99.90
52024;DHT22;38038;45.922;13.604;2022-11-20T03:18:21;8.30;99.90
52024;DHT22;38038;45.922;13.604;2022-11-20T03:20:47;8.20;99.90
52024;DHT22;38038;45.922;13.604;2022-11-20T03:23:13;8.20;99.90
52024;DHT22;38038;45.922;13.604;2022-11-20T03:25:38;8.20;99.90
52024;DHT22;38038;45.922;13.604;2022-11-20T03:28:04;8.30;99.90
52024;DHT22;38038;45.922;13.604;2022-11-20T03:30:30;8.20;99.90
52024;DHT22;38038;45.922;13.604;2022-11-20T03:32:55;8.20;99.90
52024;DHT22;38038;45.922;13.604;2022-11-20T03:35:21;8.20;99.90
52024;DHT22;38038;45.922;13.604;2022-11-20T03:37:47;8.20;99.90
52024;DHT22;38038;45.922;13.604;2022-11-20T03:40:13;8.10;99.90
52024;DHT22;38038;45.922;13.604;2022-11-20T03:42:39;8.00;99.90
52024;DHT22;38038;45.922;13.604;2022-11-20T03:45:11;8.00;99.90
52024;DHT22;38038;45.922;13.604;2022-11-20T03:47:37;8.10;99.90
52024;DHT22;38038;45.922;13.604;2022-11-20T03:50:03;8.10;99.90
52024;DHT22;38038;45.922;13.604;2022-11-20T03:52:29;8.10;99.90
52024;DHT22;38038;45.922;13.604;2022-11-20T03:54:55;8.00;99.90
52024;DHT22;38038;45.922;13.604;2022-11-20T03:57:20;8.10;99.90
52024;DHT22;38038;45.922;13.604;2022-11-20T03:59:46;8.10;99.90
52024;DHT22;38038;45.922;13.604;2022-11-20T04:02:12;8.10;99.90
52024;DHT22;38038;45.922;13.604;2022-11-20T04:04:37;8.10;99.90
52024;DHT22;38038;45.922;13.604;2022-11-20T04:07:03;8.10;99.90
52024;DHT22;38038;45.922;13.604;2022-11-20T04:09:29;8.00;99.90
52024;DHT22;38038;45.922;13.604;2022-11-20T04:11:54;8.10;99.90
52024;DHT22;38038;45.922;13.604;2022-11-20T04:14:20;8.10;99.90
52024;DHT22;38038;45.922;13.604;2022-11-20T04:16:46;8.10;99.90
52024;DHT22;38038;45.922;13.604;2022-11-20T04:19:14;8.10;99.90
52024;DHT22;38038;45.922;13.604;2022-11-20T04:21:40;8.00;99.90
52024;DHT22;38038;45.922;13.604;2022-11-20T04:24:06;8.00;99.90
52024;DHT22;38038;45.922;13.604;2022-11-20T04:26:32;8.00;99.90
52024;DHT22;38038;45.922;13.604;2022-11-20T04:28:59;8.00;99.90
52024;DHT22;38038;45.922;13.604;2022-11-20T04:31:28;8.00;99.90
52024;DHT22;38038;45.922;13.604;2022-11-20T04:33:54;8.00;99.90
52024;DHT22;38038;45.922;13.604;2022-11-20T04:36:26;8.00;99.90
52024;DHT22;38038;45.922;13.604;2022-11-20T04:38:53;8.00;99.90
52024;DHT22;38038;45.922;13.604;2022-11-20T04:41:21;7.90;99.90
52024;DHT22;38038;45.922;13.604;2022-11-20T04:43:49;8.10;99.90
52024;DHT22;38038;45.922;13.604;2022-11-20T04:46:15;8.00;99.90
52024;DHT22;38038;45.922;13.604;2022-11-20T04:48:41;7.90;99.90
52024;DHT22;38038;45.922;13.604;2022-11-20T04:51:07;7.90;99.90
52024;DHT22;38038;45.922;13.604;2022-11-20T04:53:33;7.80;99.90
52024;DHT22;38038;45.922;13.604;2022-11-20T04:56:03;7.80;99.90
52024;DHT22;38038;45.922;13.604;2022-11-20T04:58:29;7.90;99.90
52024;DHT22;38038;45.922;13.604;2022-11-20T05:01:06;7.80;99.90
52024;DHT22;38038;45.922;13.604;2022-11-20T05:03:32;7.80;99.90
52024;DHT22;38038;45.922;13.604;2022-11-20T05:06:04;7.70;99.90
52024;DHT22;38038;45.922;13.604;2022-11-20T05:08:31;7.80;99.90
52024;DHT22;38038;45.922;13.604;2022-11-20T05:11:11;7.80;99.90
52024;DHT22;38038;45.922;13.604;2022-11-20T05:13:37;7.80;99.90
52024;DHT22;38038;45.922;13.604;2022-11-20T05:16:09;7.90;99.90
52024;DHT22;38038;45.922;13.604;2022-11-20T05:18:36;7.90;99.90
52024;DHT22;38038;45.922;13.604;2022-11-20T05:21:02;7.90;99.90
52024;DHT22;38038;45.922;13.604;2022-11-20T05:23:29;7.90;99.90
52024;DHT22;38038;45.922;13.604;2022-11-20T05:25:56;7.80;99.90
52024;DHT22;38038;45.922;13.604;2022-11-20T05:28:23;7.80;99.90
52024;DHT22;38038;45.922;13.604;2022-11-20T05:30:49;7.80;99.90
52024;DHT22;38038;45.922;13.604;2022-11-20T05:33:15;7.80;99.90
52024;DHT22;38038;45.922;13.604;2022-11-20T05:35:40;7.80;99.90
52024;DHT22;38038;45.922;13.604;2022-11-20T05:38:06;7.80;99.90
52024;DHT22;38038;45.922;13.604;2022-11-20T05:40:32;7.90;99.90
52024;DHT22;38038;45.922;13.604;2022-11-20T05:42:58;7.90;99.90
52024;DHT22;38038;45.922;13.604;2022-11-20T05:45:24;7.90;99.90
52024;DHT22;38038;45.922;13.604;2022-11-20T05:47:50;7.90;99.90
52024;DHT22;38038;45.922;13.604;2022-11-20T05:50:16;7.90;99.90
52024;DHT22;38038;45.922;13.604;2022-11-20T05:52:41;7.90;99.90
52024;DHT22;38038;45.922;13.604;2022-11-20T05:55:08;7.90;99.90
52024;DHT22;38038;45.922;13.604;2022-11-20T05:57:33;7.90;99.90
52024;DHT22;38038;45.922;13.604;2022-11-20T05:59:59;7.90;99.90
52024;DHT22;38038;45.922;13.604;2022-11-20T06:02:25;7.90;99.90
52024;DHT22;38038;45.922;13.604;2022-11-20T06:04:50;7.90;99.90
52024;DHT22;38038;45.922;13.604;2022-11-20T06:07:16;8.00;99.90
52024;DHT22;38038;45.922;13.604;2022-11-20T06:09:42;7.90;99.90
52024;DHT22;38038;45.922;13.604;2022-11-20T06:12:07;7.90;99.90
52024;DHT22;38038;45.922;13.604;2022-11-20T06:14:33;7.90;99.90
52024;DHT22;38038;45.922;13.604;2022-11-20T06:16:59;7.80;99.90
52024;DHT22;38038;45.922;13.604;2022-11-20T06:19:25;7.80;99.90
52024;DHT22;38038;45.922;13.604;2022-11-20T06:21:50;7.80;99.90
52024;DHT22;38038;45.922;13.604;2022-11-20T06:24:16;7.70;99.90
52024;DHT22;38038;45.922;13.604;2022-11-20T06:26:42;7.60;99.90
52024;DHT22;38038;45.922;13.604;2022-11-20T06:29:08;7.60;99.90
52024;DHT22;38038;45.922;13.604;2022-11-20T06:31:34;7.70;99.90
52024;DHT22;38038;45.922;13.604;2022-11-20T06:34:05;7.70;99.90
52024;DHT22;38038;45.922;13.604;2022-11-20T06:36:32;7.70;99.90
52024;DHT22;38038;45.922;13.604;2022-11-20T06:38:58;7.70;99.90
52024;DHT22;38038;45.922;13.604;2022-11-20T06:41:24;7.80;99.90
52024;DHT22;38038;45.922;13.604;2022-11-20T06:43:51;7.80;99.90
52024;DHT22;38038;45.922;13.604;2022-11-20T06:46:18;7.80;99.90
52024;DHT22;38038;45.922;13.604;2022-11-20T06:48:44;7.90;99.90
52024;DHT22;38038;45.922;13.604;2022-11-20T06:51:10;8.00;99.90
52024;DHT22;38038;45.922;13.604;2022-11-20T06:53:36;8.10;99.90
52024;DHT22;38038;45.922;13.604;2022-11-20T06:56:02;8.10;99.90
52024;DHT22;38038;45.922;13.604;2022-11-20T06:58:31;8.10;99.90
52024;DHT22;38038;45.922;13.604;2022-11-20T07:00:59;8.00;99.90
52024;DHT22;38038;45.922;13.604;2022-11-20T07:03:24;8.10;99.90
52024;DHT22;38038;45.922;13.604;2022-11-20T07:05:50;8.20;99.90
52024;DHT22;38038;45.922;13.604;2022-11-20T07:08:16;8.20;99.90
52024;DHT22;38038;45.922;13.604;2022-11-20T07:10:41;8.20;99.90
52024;DHT22;38038;45.922;13.604;2022-11-20T07:13:07;8.30;99.90
52024;DHT22;38038;45.922;13.604;2022-11-20T07:15:33;8.30;99.90
52024;DHT22;38038;45.922;13.604;2022-11-20T07:17:59;8.30;99.90
52024;DHT22;38038;45.922;13.604;2022-11-20T07:20:25;8.30;99.90
52024;DHT22;38038;45.922;13.604;2022-11-20T07:22:55;8.30;99.90
52024;DHT22;38038;45.922;13.604;2022-11-20T07:25:22;8.40;99.90
52024;DHT22;38038;45.922;13.604;2022-11-20T07:27:48;8.40;99.90
52024;DHT22;38038;45.922;13.604;2022-11-20T07:30:15;8.40;99.90
52024;DHT22;38038;45.922;13.604;2022-11-20T07:32:40;8.30;99.90
52024;DHT22;38038;45.922;13.604;2022-11-20T07:35:06;8.30;99.90
52024;DHT22;38038;45.922;13.604;2022-11-20T07:37:35;8.30;99.90
52024;DHT22;38038;45.922;13.604;2022-11-20T07:40:01;8.30;99.90
52024;DHT22;38038;45.922;13.604;2022-11-20T07:42:26;8.40;99.90
52024;DHT22;38038;45.922;13.604;2022-11-20T07:44:52;8.50;99.90
52024;DHT22;38038;45.922;13.604;2022-11-20T07:47:18;8.50;99.90
52024;DHT22;38038;45.922;13.604;2022-11-20T07:49:43;8.60;99.90
52024;DHT22;38038;45.922;13.604;2022-11-20T07:52:09;8.60;99.90
52024;DHT22;38038;45.922;13.604;2022-11-20T07:54:35;8.70;99.90
52024;DHT22;38038;45.922;13.604;2022-11-20T07:57:00;8.70;99.90
52024;DHT22;38038;45.922;13.604;2022-11-20T07:59:26;8.70;99.90
52024;DHT22;38038;45.922;13.604;2022-11-20T08:01:52;8.80;99.90
52024;DHT22;38038;45.922;13.604;2022-11-20T08:04:17;8.80;99.90
52024;DHT22;38038;45.922;13.604;2022-11-20T08:06:43;8.80;99.90
52024;DHT22;38038;45.922;13.604;2022-11-20T08:09:09;8.90;99.90
52024;DHT22;38038;45.922;13.604;2022-11-20T08:11:35;8.90;99.90
52024;DHT22;38038;45.922;13.604;2022-11-20T08:14:19;9.00;99.90
52024;DHT22;38038;45.922;13.604;2022-11-20T08:16:46;9.10;99.90
52024;DHT22;38038;45.922;13.604;2022-11-20T08:19:16;9.20;99.90
52024;DHT22;38038;45.922;13.604;2022-11-20T08:21:42;9.20;99.90
52024;DHT22;38038;45.922;13.604;2022-11-20T08:24:08;9.30;99.90
52024;DHT22;38038;45.922;13.604;2022-11-20T08:26:35;9.40;99.90
52024;DHT22;38038;45.922;13.604;2022-11-20T08:29:01;9.50;99.90
52024;DHT22;38038;45.922;13.604;2022-11-20T08:31:27;9.40;99.90
52024;DHT22;38038;45.922;13.604;2022-11-20T08:33:53;9.40;99.90
52024;DHT22;38038;45.922;13.604;2022-11-20T08:36:20;9.30;99.90
52024;DHT22;38038;45.922;13.604;2022-11-20T08:38:54;9.20;99.90
52024;DHT22;38038;45.922;13.604;2022-11-20T08:41:20;9.20;99.90
52024;DHT22;38038;45.922;13.604;2022-11-20T08:46:21;9.20;99.90
52024;DHT22;38038;45.922;13.604;2022-11-20T08:48:47;9.30;99.90
52024;DHT22;38038;45.922;13.604;2022-11-20T08:51:13;9.40;99.90
52024;DHT22;38038;45.922;13.604;2022-11-20T08:53:39;9.40;99.90
52024;DHT22;38038;45.922;13.604;2022-11-20T08:56:05;9.50;99.90
52024;DHT22;38038;45.922;13.604;2022-11-20T08:58:31;9.50;99.90
52024;DHT22;38038;45.922;13.604;2022-11-20T09:00:57;9.50;99.90
52024;DHT22;38038;45.922;13.604;2022-11-20T09:03:23;9.50;99.90
52024;DHT22;38038;45.922;13.604;2022-11-20T09:05:48;9.60;99.90
52024;DHT22;38038;45.922;13.604;2022-11-20T09:08:14;9.70;99.90
52024;DHT22;38038;45.922;13.604;2022-11-20T09:10:40;9.70;99.90
52024;DHT22;38038;45.922;13.604;2022-11-20T09:13:06;9.90;99.90
52024;DHT22;38038;45.922;13.604;2022-11-20T09:15:32;9.90;99.90
52024;DHT22;38038;45.922;13.604;2022-11-20T09:18:02;9.90;99.90
52024;DHT22;38038;45.922;13.604;2022-11-20T09:20:30;10.00;99.90
52024;DHT22;38038;45.922;13.604;2022-11-20T09:22:56;10.00;99.90
52024;DHT22;38038;45.922;13.604;2022-11-20T09:25:23;9.90;99.90
52024;DHT22;38038;45.922;13.604;2022-11-20T09:27:57;9.90;99.90
52024;DHT22;38038;45.922;13.604;2022-11-20T09:30:24;9.90;99.90
52024;DHT22;38038;45.922;13.604;2022-11-20T09:32:50;9.90;99.90
52024;DHT22;38038;45.922;13.604;2022-11-20T09:35:16;9.90;99.90
52024;DHT22;38038;45.922;13.604;2022-11-20T09:37:43;10.00;99.90
52024;DHT22;38038;45.922;13.604;2022-11-20T09:40:26;10.00;99.90
52024;DHT22;38038;45.922;13.604;2022-11-20T09:46:20;10.00;99.90
52024;DHT22;38038;45.922;13.604;2022-11-20T09:51:46;9.90;99.90
52024;DHT22;38038;45.922;13.604;2022-11-20T09:54:17;9.90;99.90
52024;DHT22;38038;45.922;13.604;2022-11-20T09:57:19;9.90;99.90
52024;DHT22;38038;45.922;13.604;2022-11-20T09:59:50;10.10;99.90
52024;DHT22;38038;45.922;13.604;2022-11-20T10:05:45;10.00;99.90
52024;DHT22;38038;45.922;13.604;2022-11-20T10:07:51;10.00;99.90
52024;DHT22;38038;45.922;13.604;2022-11-20T10:10:46;10.10;99.90
52024;DHT22;38038;45.922;13.604;2022-11-20T10:24:44;10.20;99.90
52024;DHT22;38038;45.922;13.604;2022-11-20T10:30:14;10.30;99.90
52024;DHT22;38038;45.922;13.604;2022-11-20T10:32:51;10.40;99.90
52024;DHT22;38038;45.922;13.604;2022-11-20T10:35:39;10.30;99.90
52024;DHT22;38038;45.922;13.604;2022-11-20T10:38:12;10.30;99.90
52024;DHT22;38038;45.922;13.604;2022-11-20T10:40:44;10.40;99.90
52024;DHT22;38038;45.922;13.604;2022-11-20T10:43:37;10.40;99.90
52024;DHT22;38038;45.922;13.604;2022-11-20T10:46:04;10.30;99.90
52024;DHT22;38038;45.922;13.604;2022-11-20T10:48:32;10.20;99.90
52024;DHT22;38038;45.922;13.604;2022-11-20T10:56:52;10.40;99.90
52024;DHT22;38038;45.922;13.604;2022-11-20T11:02:23;10.50;99.90
52024;DHT22;38038;45.922;13.604;2022-11-20T11:04:53;10.70;99.90
52024;DHT22;38038;45.922;13.604;2022-11-20T11:07:33;10.70;99.90
52024;DHT22;38038;45.922;13.604;2022-11-20T11:10:00;10.70;99.90
52024;DHT22;38038;45.922;13.604;2022-11-20T11:12:28;10.90;99.90
52024;DHT22;38038;45.922;13.604;2022-11-20T11:14:57;11.00;99.90
52024;DHT22;38038;45.922;13.604;2022-11-20T11:17:31;11.00;99.90
52024;DHT22;38038;45.922;13.604;2022-11-20T11:20:15;11.10;99.90
52024;DHT22;38038;45.922;13.604;2022-11-20T11:22:54;11.20;99.90
52024;DHT22;38038;45.922;13.604;2022-11-20T11:25:29;11.20;99.90
52024;DHT22;38038;45.922;13.604;2022-11-20T11:28:21;11.10;99.90
52024;DHT22;38038;45.922;13.604;2022-11-20T11:30:46;11.10;99.90
52024;DHT22;38038;45.922;13.604;2022-11-20T11:35:52;11.40;99.90
52024;DHT22;38038;45.922;13.604;2022-11-20T11:38:41;11.40;99.90
52024;DHT22;38038;45.922;13.604;2022-11-20T11:41:15;11.40;99.90
52024;DHT22;38038;45.922;13.604;2022-11-20T11:43:56;11.60;99.90
52024;DHT22;38038;45.922;13.604;2022-11-20T11:46:52;11.60;99.90
52024;DHT22;38038;45.922;13.604;2022-11-20T11:49:19;11.60;99.90
52024;DHT22;38038;45.922;13.604;2022-11-20T11:57:04;11.50;99.90
52024;DHT22;38038;45.922;13.604;2022-11-20T12:04:57;11.30;99.90
52024;DHT22;38038;45.922;13.604;2022-11-20T12:10:03;11.00;99.90
52024;DHT22;38038;45.922;13.604;2022-11-20T12:12:37;11.00;99.90
52024;DHT22;38038;45.922;13.604;2022-11-20T12:15:06;10.90;99.90
52024;DHT22;38038;45.922;13.604;2022-11-20T12:17:35;10.90;99.90
52024;DHT22;38038;45.922;13.604;2022-11-20T12:20:00;10.80;99.90
52024;DHT22;38038;45.922;13.604;2022-11-20T12:22:41;10.80;99.90
52024;DHT22;38038;45.922;13.604;2022-11-20T12:25:34;10.80;99.90
52024;DHT22;38038;45.922;13.604;2022-11-20T12:30:48;10.90;99.90
52024;DHT22;38038;45.922;13.604;2022-11-20T12:33:47;10.90;99.90
52024;DHT22;38038;45.922;13.604;2022-11-20T12:52:52;10.90;99.90
52024;DHT22;38038;45.922;13.604;2022-11-20T12:55:31;10.90;99.90
52024;DHT22;38038;45.922;13.604;2022-11-20T13:06:51;10.80;99.90
52024;DHT22;38038;45.922;13.604;2022-11-20T13:09:19;10.70;99.90
52024;DHT22;38038;45.922;13.604;2022-11-20T13:12:06;10.80;99.90
52024;DHT22;38038;45.922;13.604;2022-11-20T13:14:40;10.70;99.90
52024;DHT22;38038;45.922;13.604;2022-11-20T13:19:40;10.80;99.90
52024;DHT22;38038;45.922;13.604;2022-11-20T13:22:07;10.80;99.90
52024;DHT22;38038;45.922;13.604;2022-11-20T13:24:33;10.70;99.90
52024;DHT22;38038;45.922;13.604;2022-11-20T13:29:36;10.80;99.90
52024;DHT22;38038;45.922;13.604;2022-11-20T13:32:16;10.80;99.90
52024;DHT22;38038;45.922;13.604;2022-11-20T13:34:54;10.80;99.90
52024;DHT22;38038;45.922;13.604;2022-11-20T13:37:38;10.70;99.90
52024;DHT22;38038;45.922;13.604;2022-11-20T13:42:37;10.70;99.90
52024;DHT22;38038;45.922;13.604;2022-11-20T13:45:11;10.70;99.90
52024;DHT22;38038;45.922;13.604;2022-11-20T13:47:37;10.60;99.90
52024;DHT22;38038;45.922;13.604;2022-11-20T13:50:04;10.60;99.90
52024;DHT22;38038;45.922;13.604;2022-11-20T13:55:29;10.60;99.90
52024;DHT22;38038;45.922;13.604;2022-11-20T14:00:44;10.40;99.90
52024;DHT22;38038;45.922;13.604;2022-11-20T14:03:18;10.40;99.90
52024;DHT22;38038;45.922;13.604;2022-11-20T14:05:55;10.40;99.90
52024;DHT22;38038;45.922;13.604;2022-11-20T14:08:38;10.30;99.90
52024;DHT22;38038;45.922;13.604;2022-11-20T14:11:17;10.40;99.90
52024;DHT22;38038;45.922;13.604;2022-11-20T14:14:04;10.30;99.90
52024;DHT22;38038;45.922;13.604;2022-11-20T14:16:33;10.30;99.90
52024;DHT22;38038;45.922;13.604;2022-11-20T14:21:49;10.20;99.90
52024;DHT22;38038;45.922;13.604;2022-11-20T14:24:20;10.20;99.90
52024;DHT22;38038;45.922;13.604;2022-11-20T14:26:47;10.20;99.90
52024;DHT22;38038;45.922;13.604;2022-11-20T14:29:20;10.10;99.90
52024;DHT22;38038;45.922;13.604;2022-11-20T14:31:48;10.10;99.90
52024;DHT22;38038;45.922;13.604;2022-11-20T14:34:19;10.10;99.90
52024;DHT22;38038;45.922;13.604;2022-11-20T14:36:46;10.00;99.90
52024;DHT22;38038;45.922;13.604;2022-11-20T14:39:20;9.90;99.90
52024;DHT22;38038;45.922;13.604;2022-11-20T14:41:53;9.90;99.90
52024;DHT22;38038;45.922;13.604;2022-11-20T14:44:28;9.80;99.90
52024;DHT22;38038;45.922;13.604;2022-11-20T14:46:55;9.80;99.90
52024;DHT22;38038;45.922;13.604;2022-11-20T14:49:22;9.70;99.90
52024;DHT22;38038;45.922;13.604;2022-11-20T14:52:15;9.70;99.90
52024;DHT22;38038;45.922;13.604;2022-11-20T14:54:48;9.60;99.90
52024;DHT22;38038;45.922;13.604;2022-11-20T14:57:24;9.50;99.90
52024;DHT22;38038;45.922;13.604;2022-11-20T14:59:51;9.50;99.90
52024;DHT22;38038;45.922;13.604;2022-11-20T15:02:29;9.40;99.90
52024;DHT22;38038;45.922;13.604;2022-11-20T15:05:00;9.30;99.90
52024;DHT22;38038;45.922;13.604;2022-11-20T15:07:37;9.30;99.90
52024;DHT22;38038;45.922;13.604;2022-11-20T15:10:08;9.20;99.90
52024;DHT22;38038;45.922;13.604;2022-11-20T15:12:45;9.20;99.90
52024;DHT22;38038;45.922;13.604;2022-11-20T15:15:16;9.10;99.90
52024;DHT22;38038;45.922;13.604;2022-11-20T15:17:43;9.10;99.90
52024;DHT22;38038;45.922;13.604;2022-11-20T15:20:13;9.00;99.90
52024;DHT22;38038;45.922;13.604;2022-11-20T15:22:39;9.00;99.90
52024;DHT22;38038;45.922;13.604;2022-11-20T15:25:14;8.90;99.90
52024;DHT22;38038;45.922;13.604;2022-11-20T15:27:41;8.90;99.90
52024;DHT22;38038;45.922;13.604;2022-11-20T15:30:19;8.90;99.90
52024;DHT22;38038;45.922;13.604;2022-11-20T15:32:45;8.80;99.90
52024;DHT22;38038;45.922;13.604;2022-11-20T15:35:12;8.80;99.90
52024;DHT22;38038;45.922;13.604;2022-11-20T15:37:38;8.80;99.90
52024;DHT22;38038;45.922;13.604;2022-11-20T15:40:05;8.70;99.90
52024;DHT22;38038;45.922;13.604;2022-11-20T15:42:31;8.70;99.90
52024;DHT22;38038;45.922;13.604;2022-11-20T15:44:57;8.70;99.90
52024;DHT22;38038;45.922;13.604;2022-11-20T15:47:30;8.60;99.90
52024;DHT22;38038;45.922;13.604;2022-11-20T15:49:56;8.60;99.90
52024;DHT22;38038;45.922;13.604;2022-11-20T15:52:22;8.50;99.90
52024;DHT22;38038;45.922;13.604;2022-11-20T15:54:48;8.50;99.90
52024;DHT22;38038;45.922;13.604;2022-11-20T15:57:13;8.50;99.90
52024;DHT22;38038;45.922;13.604;2022-11-20T15:59:39;8.50;99.90
52024;DHT22;38038;45.922;13.604;2022-11-20T16:02:11;8.50;99.90
52024;DHT22;38038;45.922;13.604;2022-11-20T16:04:38;8.40;99.90
52024;DHT22;38038;45.922;13.604;2022-11-20T16:07:03;8.50;99.90
52024;DHT22;38038;45.922;13.604;2022-11-20T16:09:29;8.40;99.90
52024;DHT22;38038;45.922;13.604;2022-11-20T16:11:55;8.30;99.90
52024;DHT22;38038;45.922;13.604;2022-11-20T16:14:21;8.40;99.90
52024;DHT22;38038;45.922;13.604;2022-11-20T16:17:05;8.40;99.90
52024;DHT22;38038;45.922;13.604;2022-11-20T16:19:31;8.30;99.90
52024;DHT22;38038;45.922;13.604;2022-11-20T16:21:59;8.30;99.90
52024;DHT22;38038;45.922;13.604;2022-11-20T16:24:26;8.20;99.90
52024;DHT22;38038;45.922;13.604;2022-11-20T16:26:53;8.10;99.90
52024;DHT22;38038;45.922;13.604;2022-11-20T16:29:19;8.10;99.90
52024;DHT22;38038;45.922;13.604;2022-11-20T16:31:45;8.00;99.90
52024;DHT22;38038;45.922;13.604;2022-11-20T16:34:11;8.00;99.90
52024;DHT22;38038;45.922;13.604;2022-11-20T16:36:39;7.90;99.90
52024;DHT22;38038;45.922;13.604;2022-11-20T16:39:06;7.80;99.90
52024;DHT22;38038;45.922;13.604;2022-11-20T16:41:32;7.80;99.90
52024;DHT22;38038;45.922;13.604;2022-11-20T16:44:00;7.80;99.90
52024;DHT22;38038;45.922;13.604;2022-11-20T16:46:29;7.80;99.90
52024;DHT22;38038;45.922;13.604;2022-11-20T16:49:00;7.80;99.90
52024;DHT22;38038;45.922;13.604;2022-11-20T16:51:28;7.90;99.90
52024;DHT22;38038;45.922;13.604;2022-11-20T16:53:54;7.90;99.90
52024;DHT22;38038;45.922;13.604;2022-11-20T16:56:22;7.80;99.90
52024;DHT22;38038;45.922;13.604;2022-11-20T16:58:49;7.90;99.90
52024;DHT22;38038;45.922;13.604;2022-11-20T17:01:19;7.80;99.90
52024;DHT22;38038;45.922;13.604;2022-11-20T17:03:50;7.80;99.90
52024;DHT22;38038;45.922;13.604;2022-11-20T17:06:20;7.80;99.90
52024;DHT22;38038;45.922;13.604;2022-11-20T17:08:46;7.70;99.90
52024;DHT22;38038;45.922;13.604;2022-11-20T17:11:15;7.80;99.90
52024;DHT22;38038;45.922;13.604;2022-11-20T17:13:41;7.70;99.90
52024;DHT22;38038;45.922;13.604;2022-11-20T17:16:15;7.70;99.90
52024;DHT22;38038;45.922;13.604;2022-11-20T17:18:41;7.70;99.90
52024;DHT22;38038;45.922;13.604;2022-11-20T17:21:08;7.70;99.90
52024;DHT22;38038;45.922;13.604;2022-11-20T17:23:38;7.70;99.90
52024;DHT22;38038;45.922;13.604;2022-11-20T17:26:12;7.70;99.90